Time;durP1;ratioP1;P1;durP2;ratioP2;P2;SDS_P1;SDS_P2;PMS_P1;PMS_P2;Temp;Humidity;BMP_temperature;BMP_pressure;BME280_temperature;BME280_humidity;BME280_pressure;Samples;Min_cycle;Max_cycle;Signal;HPM_P1;HPM_P2
2023/08/29 00:01:54;;;;;;;2.83;1.97;;;16.60;99.90;;;;;;4189392;28;20215;-76
2023/08/29 00:03:58;;;;;;;3.50;2.13;;;16.60;99.90;;;;;;4186596;28;20672;-76
2023/08/29 00:06:03;;;;;;;2.43;1.90;;;16.60;99.90;;;;;;4187591;28;20203;-76
2023/08/29 00:08:05;;;;;;;3.20;1.80;;;16.60;99.90;;;;;;4188383;28;20207;-77
2023/08/29 00:10:08;;;;;;;2.30;2.10;;;16.60;99.90;;;;;;4186075;28;20301;-76
2023/08/29 00:12:09;;;;;;;3.33;2.30;;;16.60;99.90;;;;;;4188699;28;20257;-76
2023/08/29 00:14:11;;;;;;;2.00;1.80;;;16.50;99.90;;;;;;4188132;28;20739;-76
2023/08/29 00:16:16;;;;;;;5.37;2.50;;;16.50;99.90;;;;;;4186852;28;20226;-74
2023/08/29 00:18:20;;;;;;;2.93;2.07;;;16.50;99.90;;;;;;4186559;28;20214;-76
2023/08/29 00:20:22;;;;;;;3.13;2.13;;;16.50;99.90;;;;;;4187427;28;20261;-76
2023/08/29 00:22:24;;;;;;;2.10;1.90;;;16.50;99.90;;;;;;4189534;28;20671;-76
2023/08/29 00:24:26;;;;;;;2.67;2.00;;;16.40;99.90;;;;;;4187360;28;20202;-76
2023/08/29 00:26:27;;;;;;;2.70;2.30;;;16.40;99.90;;;;;;4188189;28;20663;-75
2023/08/29 00:28:29;;;;;;;2.80;2.37;;;16.40;99.90;;;;;;4186480;28;20761;-76
2023/08/29 00:30:32;;;;;;;2.80;2.37;;;16.40;99.90;;;;;;4186269;28;20228;-77
2023/08/29 00:32:34;;;;;;;2.97;2.57;;;16.40;99.90;;;;;;4185296;28;20196;-75
2023/08/29 00:34:37;;;;;;;4.23;2.50;;;16.40;99.90;;;;;;4185243;28;20740;-74
2023/08/29 00:36:39;;;;;;;5.50;2.57;;;16.40;99.90;;;;;;4187173;28;20365;-76
2023/08/29 00:38:40;;;;;;;3.23;2.63;;;16.40;99.90;;;;;;4187228;28;20664;-76
2023/08/29 00:40:42;;;;;;;14.57;2.30;;;16.40;99.90;;;;;;4186516;28;20296;-75
2023/08/29 00:42:44;;;;;;;3.57;2.60;;;16.40;99.90;;;;;;4186426;28;20207;-76
2023/08/29 00:44:46;;;;;;;4.73;3.00;;;16.40;99.90;;;;;;4187402;28;20198;-76
2023/08/29 00:46:47;;;;;;;4.13;2.53;;;16.40;99.90;;;;;;4190114;28;20215;-76
2023/08/29 00:48:49;;;;;;;3.07;2.50;;;16.40;99.90;;;;;;4188877;28;20199;-76
2023/08/29 00:50:52;;;;;;;3.70;2.67;;;16.30;99.90;;;;;;4188924;28;20280;-76
2023/08/29 00:52:58;;;;;;;2.30;2.10;;;16.30;99.90;;;;;;4190507;28;20282;-75
2023/08/29 00:55:00;;;;;;;2.83;1.97;;;16.30;99.90;;;;;;4187193;28;20211;-77
2023/08/29 00:57:02;;;;;;;3.37;2.30;;;16.30;99.90;;;;;;4190092;28;20219;-76
2023/08/29 00:59:03;;;;;;;3.23;2.40;;;16.20;99.90;;;;;;4190058;28;20215;-76
2023/08/29 01:01:05;;;;;;;2.53;2.30;;;16.20;99.90;;;;;;4187258;28;20304;-77
2023/08/29 01:03:07;;;;;;;2.93;2.50;;;16.20;99.90;;;;;;4189688;28;20222;-76
2023/08/29 01:05:09;;;;;;;3.20;2.23;;;16.20;99.90;;;;;;4188781;28;20216;-76
2023/08/29 01:07:12;;;;;;;2.50;2.13;;;16.20;99.90;;;;;;4191369;28;20320;-76
2023/08/29 01:09:14;;;;;;;3.87;2.43;;;16.20;99.90;;;;;;4188716;28;20210;-76
2023/08/29 01:11:22;;;;;;;2.20;1.97;;;16.20;99.90;;;;;;4187042;28;20607;-77
2023/08/29 01:13:30;;;;;;;3.40;2.43;;;16.10;99.90;;;;;;4189114;28;20203;-76
2023/08/29 01:15:35;;;;;;;3.07;2.70;;;16.10;99.90;;;;;;4188618;28;20211;-76
2023/08/29 01:17:42;;;;;;;3.83;2.57;;;16.10;99.90;;;;;;4188938;28;20210;-77
2023/08/29 01:19:48;;;;;;;3.70;2.67;;;16.10;99.90;;;;;;4188946;28;20788;-77
2023/08/29 01:21:56;;;;;;;3.13;2.40;;;16.10;99.90;;;;;;4188768;28;20294;-76
2023/08/29 01:24:06;;;;;;;3.83;2.83;;;16.10;99.90;;;;;;4185986;28;20217;-76
2023/08/29 01:26:13;;;;;;;3.07;2.50;;;16.10;99.90;;;;;;4189568;28;20210;-76
2023/08/29 01:28:15;;;;;;;2.70;2.30;;;16.10;99.90;;;;;;4186653;28;20240;-76
2023/08/29 01:30:18;;;;;;;4.47;2.63;;;16.10;99.90;;;;;;4186153;28;20213;-75
2023/08/29 01:32:20;;;;;;;4.80;2.80;;;16.10;99.90;;;;;;4189109;28;20201;-75
2023/08/29 01:34:22;;;;;;;2.73;2.20;;;16.10;99.90;;;;;;4192262;28;20207;-76
2023/08/29 01:36:27;;;;;;;4.63;2.60;;;16.10;99.90;;;;;;4184416;28;20716;-74
2023/08/29 01:38:29;;;;;;;3.73;2.40;;;16.10;99.90;;;;;;4190783;28;20863;-76
2023/08/29 01:40:31;;;;;;;3.57;3.03;;;16.10;99.90;;;;;;4181427;28;21163;-76
2023/08/29 01:42:36;;;;;;;6.53;3.03;;;16.00;99.90;;;;;;4185128;28;20204;-75
2023/08/29 01:44:38;;;;;;;5.07;3.00;;;16.00;99.90;;;;;;4190167;28;20635;-75
2023/08/29 01:46:39;;;;;;;5.37;2.80;;;16.00;99.90;;;;;;4184849;28;20221;-75
2023/08/29 01:48:41;;;;;;;3.83;2.90;;;16.00;99.90;;;;;;4185990;28;20211;-76
2023/08/29 01:50:45;;;;;;;4.23;2.57;;;15.90;99.90;;;;;;4185914;28;20225;-76
2023/08/29 01:52:48;;;;;;;4.20;2.63;;;15.90;99.90;;;;;;4190081;28;20209;-76
2023/08/29 01:54:49;;;;;;;3.63;2.43;;;15.90;99.90;;;;;;4187333;28;20268;-75
2023/08/29 01:56:53;;;;;;;5.03;3.00;;;15.90;99.90;;;;;;4188412;28;20248;-76
2023/08/29 01:58:57;;;;;;;4.03;2.80;;;15.80;99.90;;;;;;4187875;28;20206;-76
2023/08/29 02:01:00;;;;;;;4.47;2.87;;;15.80;99.90;;;;;;4188129;28;21029;-76
2023/08/29 02:03:02;;;;;;;5.10;3.43;;;15.90;99.90;;;;;;4185507;28;20217;-75
2023/08/29 02:05:05;;;;;;;3.73;2.80;;;15.80;99.90;;;;;;4183988;28;20198;-75
2023/08/29 02:07:06;;;;;;;4.10;3.30;;;15.80;99.90;;;;;;4184156;28;20218;-73
2023/08/29 02:09:08;;;;;;;4.17;3.33;;;15.80;99.90;;;;;;4180610;28;20661;-75
2023/08/29 02:11:10;;;;;;;4.50;3.50;;;15.80;99.90;;;;;;4182001;28;20714;-76
2023/08/29 02:13:12;;;;;;;5.90;3.67;;;15.80;99.90;;;;;;4187906;28;20210;-76
2023/08/29 02:15:15;;;;;;;4.13;3.37;;;15.80;99.90;;;;;;4189145;28;20256;-76
2023/08/29 02:17:17;;;;;;;9.07;3.87;;;15.80;99.90;;;;;;4190602;28;20202;-76
2023/08/29 02:19:19;;;;;;;4.10;3.30;;;15.80;99.90;;;;;;4189108;28;20210;-75
2023/08/29 02:21:21;;;;;;;4.60;3.30;;;15.80;99.90;;;;;;4188813;28;20227;-75
2023/08/29 02:23:24;;;;;;;4.37;3.43;;;15.80;99.90;;;;;;4188806;28;20233;-75
2023/08/29 02:25:26;;;;;;;4.00;3.43;;;15.80;99.90;;;;;;4187726;28;20206;-77
2023/08/29 02:27:27;;;;;;;7.23;4.10;;;15.80;99.90;;;;;;4190116;28;20251;-76
2023/08/29 02:29:29;;;;;;;4.07;3.50;;;15.80;99.90;;;;;;4188111;28;20634;-76
2023/08/29 02:31:32;;;;;;;6.03;3.60;;;15.80;99.90;;;;;;4189805;28;20198;-76
2023/08/29 02:33:35;;;;;;;4.87;3.57;;;15.80;99.90;;;;;;4189175;28;20275;-76
2023/08/29 02:35:36;;;;;;;6.03;4.10;;;15.80;99.90;;;;;;4188836;28;20946;-75
2023/08/29 02:37:40;;;;;;;5.57;3.83;;;15.80;99.90;;;;;;4187608;28;20218;-76
2023/08/29 02:39:42;;;;;;;7.37;4.20;;;15.80;99.90;;;;;;4187307;28;20246;-76
2023/08/29 02:41:44;;;;;;;6.37;4.50;;;15.70;99.90;;;;;;4200572;28;20233;-76
2023/08/29 02:43:46;;;;;;;5.67;4.10;;;15.80;99.90;;;;;;4186616;28;20200;-76
2023/08/29 02:45:50;;;;;;;6.30;4.33;;;15.70;99.90;;;;;;4187298;28;20211;-77
2023/08/29 02:47:53;;;;;;;6.50;4.40;;;15.70;99.90;;;;;;4187094;28;20238;-76
2023/08/29 02:49:55;;;;;;;5.90;4.10;;;15.70;99.90;;;;;;4191113;28;20807;-77
2023/08/29 02:51:58;;;;;;;5.87;4.13;;;15.70;99.90;;;;;;4189666;28;20206;-75
2023/08/29 02:54:00;;;;;;;5.53;4.10;;;15.70;99.90;;;;;;4188878;28;20210;-77
2023/08/29 02:56:01;;;;;;;6.03;4.23;;;15.70;99.90;;;;;;4187656;28;20267;-77
2023/08/29 02:58:03;;;;;;;5.13;4.33;;;15.70;99.90;;;;;;4192436;28;20202;-76
2023/08/29 03:00:07;;;;;;;7.57;4.13;;;15.70;99.90;;;;;;4191029;28;20768;-77
2023/08/29 03:02:09;;;;;;;5.37;4.07;;;15.70;99.90;;;;;;4187874;28;20608;-76
2023/08/29 03:04:13;;;;;;;5.67;4.00;;;15.60;99.90;;;;;;4191213;28;20232;-76
2023/08/29 03:06:15;;;;;;;5.53;4.30;;;15.60;99.90;;;;;;4187532;28;20298;-76
2023/08/29 03:08:16;;;;;;;6.57;4.33;;;15.70;99.90;;;;;;4185584;28;20246;-76
2023/08/29 03:10:18;;;;;;;5.47;4.40;;;15.60;99.90;;;;;;4187024;28;20221;-75
2023/08/29 03:12:20;;;;;;;5.77;4.40;;;15.60;99.90;;;;;;4188220;28;20224;-74
2023/08/29 03:14:22;;;;;;;5.47;4.40;;;15.60;99.90;;;;;;4188579;28;20210;-76
2023/08/29 03:16:24;;;;;;;6.10;4.53;;;15.60;99.90;;;;;;4189423;28;20280;-76
2023/08/29 03:18:26;;;;;;;7.97;5.00;;;15.60;99.90;;;;;;4186565;28;20263;-77
2023/08/29 03:20:30;;;;;;;5.80;4.40;;;15.60;99.90;;;;;;4186161;28;20324;-76
2023/08/29 03:22:32;;;;;;;6.27;5.00;;;15.60;99.90;;;;;;4189423;28;20205;-76
2023/08/29 03:24:33;;;;;;;6.97;5.00;;;15.50;99.90;;;;;;4187950;28;20728;-74
2023/08/29 03:26:35;;;;;;;7.10;5.10;;;15.50;99.90;;;;;;4188560;28;20655;-76
2023/08/29 03:28:37;;;;;;;6.27;4.80;;;15.50;99.90;;;;;;4187948;28;20684;-76
2023/08/29 03:30:38;;;;;;;7.90;5.33;;;15.50;99.90;;;;;;4187620;28;20770;-76
2023/08/29 03:32:40;;;;;;;6.27;4.90;;;15.50;99.90;;;;;;4187342;28;20202;-76
2023/08/29 03:34:42;;;;;;;6.87;5.80;;;15.40;99.90;;;;;;4187566;28;20217;-76
2023/08/29 03:36:45;;;;;;;8.40;5.43;;;15.40;99.90;;;;;;4186391;28;20202;-76
2023/08/29 03:38:46;;;;;;;6.90;5.80;;;15.40;99.90;;;;;;4186708;28;20286;-75
2023/08/29 03:40:56;;;;;;;7.70;5.87;;;15.40;99.90;;;;;;4184589;28;20230;-75
2023/08/29 03:42:58;;;;;;;17.23;6.77;;;15.30;99.90;;;;;;4188826;28;20263;-76
2023/08/29 03:45:00;;;;;;;6.93;6.10;;;15.30;99.90;;;;;;4187290;28;20210;-76
2023/08/29 03:47:01;;;;;;;10.73;5.80;;;15.30;99.90;;;;;;4190612;28;20210;-74
2023/08/29 03:49:03;;;;;;;8.37;6.37;;;15.30;99.90;;;;;;4191444;28;20729;-75
2023/08/29 03:51:06;;;;;;;10.70;6.73;;;15.20;99.90;;;;;;4185108;28;20239;-75
2023/08/29 03:53:10;;;;;;;9.07;6.97;;;15.20;99.90;;;;;;4185987;28;20241;-74
2023/08/29 03:55:12;;;;;;;10.67;6.83;;;15.20;99.90;;;;;;4187386;28;20198;-75
2023/08/29 03:57:14;;;;;;;9.90;6.83;;;15.20;99.90;;;;;;4191717;28;20299;-75
2023/08/29 03:59:15;;;;;;;7.67;6.40;;;15.20;99.90;;;;;;4191986;28;20563;-75
2023/08/29 04:01:19;;;;;;;11.67;8.53;;;15.20;99.90;;;;;;4190762;28;20291;-75
2023/08/29 04:03:21;;;;;;;12.23;8.83;;;15.10;99.90;;;;;;4187369;28;21061;-75
2023/08/29 04:05:23;;;;;;;14.40;8.90;;;15.10;99.90;;;;;;4189693;28;20222;-76
2023/08/29 04:07:25;;;;;;;14.63;8.83;;;15.10;99.90;;;;;;4190391;28;20276;-76
2023/08/29 04:09:28;;;;;;;10.63;8.00;;;15.10;99.90;;;;;;4184279;28;20232;-74
2023/08/29 04:11:30;;;;;;;14.17;10.50;;;15.10;99.90;;;;;;4184659;28;20210;-75
2023/08/29 04:13:33;;;;;;;10.17;8.13;;;15.10;99.90;;;;;;4188610;28;20213;-74
2023/08/29 04:15:36;;;;;;;11.47;8.90;;;15.10;99.90;;;;;;4191534;28;20971;-76
2023/08/29 04:17:38;;;;;;;8.70;7.60;;;15.00;99.90;;;;;;4189124;28;20212;-74
2023/08/29 04:19:40;;;;;;;9.67;7.80;;;15.00;99.90;;;;;;4191969;28;20205;-76
2023/08/29 04:21:42;;;;;;;10.10;7.60;;;15.10;99.90;;;;;;4192760;28;21363;-76
2023/08/29 04:23:44;;;;;;;11.43;8.53;;;15.00;99.90;;;;;;4192887;28;20248;-76
2023/08/29 04:25:47;;;;;;;12.33;8.23;;;15.10;99.90;;;;;;4191874;28;20275;-77
2023/08/29 04:27:50;;;;;;;14.53;10.23;;;15.10;99.90;;;;;;4192609;28;20558;-77
2023/08/29 04:29:51;;;;;;;12.27;8.90;;;15.10;99.90;;;;;;4194090;28;20225;-77
2023/08/29 04:31:53;;;;;;;11.47;8.37;;;15.00;99.90;;;;;;4193207;28;20601;-76
2023/08/29 04:33:55;;;;;;;8.97;7.67;;;15.00;99.90;;;;;;4192495;28;20221;-76
2023/08/29 04:35:57;;;;;;;9.27;7.40;;;15.00;99.90;;;;;;4191516;28;20221;-78
2023/08/29 04:37:59;;;;;;;9.37;7.50;;;15.00;99.90;;;;;;4193360;28;20213;-78
2023/08/29 04:40:01;;;;;;;13.13;8.40;;;15.00;99.90;;;;;;4207417;28;20232;-77
2023/08/29 04:42:04;;;;;;;9.67;7.83;;;15.00;99.90;;;;;;4192994;28;20623;-77
2023/08/29 04:44:07;;;;;;;10.83;8.33;;;15.00;99.90;;;;;;4191355;28;20210;-76
2023/08/29 04:46:09;;;;;;;10.07;7.63;;;15.00;99.90;;;;;;4192448;28;20212;-78
2023/08/29 04:48:11;;;;;;;11.67;7.90;;;15.00;99.90;;;;;;4194357;28;20206;-78
2023/08/29 04:50:12;;;;;;;10.90;8.73;;;15.00;99.90;;;;;;4193689;28;20267;-78
2023/08/29 04:52:14;;;;;;;9.17;7.17;;;14.90;99.90;;;;;;4194066;28;20672;-77
2023/08/29 04:54:15;;;;;;;12.90;9.37;;;14.90;99.90;;;;;;4203415;28;20198;-79
2023/08/29 04:56:17;;;;;;;12.60;9.13;;;14.90;99.90;;;;;;4194198;28;20215;-77
2023/08/29 04:58:20;;;;;;;12.10;9.43;;;14.90;99.90;;;;;;4191615;28;20255;-78
2023/08/29 05:00:23;;;;;;;12.00;9.17;;;14.90;99.90;;;;;;4188265;28;20231;-79
2023/08/29 05:02:25;;;;;;;11.40;8.47;;;14.80;99.90;;;;;;4192165;28;20209;-79
2023/08/29 05:04:27;;;;;;;12.10;8.77;;;14.80;99.90;;;;;;4187665;28;21182;-78
2023/08/29 05:06:29;;;;;;;8.93;7.80;;;14.80;99.90;;;;;;4191937;28;20263;-78
2023/08/29 05:08:34;;;;;;;14.50;10.60;;;14.80;99.90;;;;;;4194388;28;20259;-79
2023/08/29 05:10:36;;;;;;;11.83;9.00;;;14.80;99.90;;;;;;4190232;28;20320;-79
2023/08/29 05:12:38;;;;;;;10.87;8.77;;;14.70;99.90;;;;;;4188843;28;20232;-78
2023/08/29 05:14:41;;;;;;;13.00;9.23;;;14.60;99.90;;;;;;4188916;28;20727;-78
2023/08/29 05:16:43;;;;;;;12.73;7.90;;;14.60;99.90;;;;;;4194817;28;20196;-79
2023/08/29 05:18:45;;;;;;;12.00;7.47;;;14.60;99.90;;;;;;4192032;28;20203;-76
2023/08/29 05:20:47;;;;;;;10.53;7.73;;;14.60;99.90;;;;;;4194095;28;20271;-77
2023/08/29 05:22:49;;;;;;;11.73;8.00;;;14.60;99.90;;;;;;4197429;28;20612;-77
2023/08/29 05:24:50;;;;;;;10.93;7.40;;;14.60;99.90;;;;;;4192725;28;20214;-77
2023/08/29 05:26:51;;;;;;;8.73;7.43;;;14.60;99.90;;;;;;4191491;28;20207;-76
2023/08/29 05:28:53;;;;;;;10.43;8.00;;;14.60;99.90;;;;;;4196181;28;20208;-76
2023/08/29 05:30:57;;;;;;;9.50;7.23;;;14.60;99.90;;;;;;4197042;28;20230;-77
2023/08/29 05:32:59;;;;;;;8.33;7.40;;;14.60;99.90;;;;;;4191486;28;20715;-76
2023/08/29 05:35:01;;;;;;;7.70;6.57;;;14.60;99.90;;;;;;4205423;28;20218;-78
2023/08/29 05:37:03;;;;;;;8.43;7.30;;;14.60;99.90;;;;;;4196252;28;20258;-76
2023/08/29 05:39:05;;;;;;;9.10;6.40;;;14.60;99.90;;;;;;4194454;28;20201;-76
2023/08/29 05:41:08;;;;;;;7.77;6.60;;;14.60;99.90;;;;;;4187094;28;20316;-78
2023/08/29 05:43:10;;;;;;;8.10;6.30;;;14.60;99.90;;;;;;4193953;28;20641;-77
2023/08/29 05:45:12;;;;;;;9.87;6.67;;;14.60;99.90;;;;;;4189802;28;20235;-76
2023/08/29 05:47:15;;;;;;;10.30;6.43;;;14.60;99.90;;;;;;4187313;28;20220;-76
2023/08/29 05:49:17;;;;;;;9.30;6.33;;;14.60;99.90;;;;;;4187780;28;20962;-75
2023/08/29 05:51:19;;;;;;;8.50;6.63;;;14.60;99.90;;;;;;4193500;28;20233;-76
2023/08/29 05:53:21;;;;;;;8.47;6.30;;;14.70;99.90;;;;;;4191314;28;20620;-76
2023/08/29 05:55:23;;;;;;;9.60;6.73;;;14.70;99.90;;;;;;4192678;28;20215;-75
2023/08/29 05:57:25;;;;;;;8.40;6.80;;;14.70;99.90;;;;;;4193884;28;20207;-76
2023/08/29 05:59:26;;;;;;;9.83;6.20;;;14.70;99.90;;;;;;4195100;28;20221;-75
2023/08/29 06:01:27;;;;;;;8.90;6.20;;;14.70;99.90;;;;;;4191169;28;20986;-78
2023/08/29 06:03:31;;;;;;;8.70;5.70;;;14.70;99.90;;;;;;4191767;28;20256;-76
2023/08/29 06:05:33;;;;;;;9.20;5.77;;;14.70;99.90;;;;;;4200156;28;20207;-76
2023/08/29 06:07:35;;;;;;;8.03;6.07;;;14.70;99.90;;;;;;4191268;28;20261;-76
2023/08/29 06:09:37;;;;;;;7.53;5.87;;;14.70;99.90;;;;;;4191779;28;20197;-76
2023/08/29 06:11:39;;;;;;;10.47;5.80;;;14.80;99.90;;;;;;4193509;28;20198;-76
2023/08/29 06:13:41;;;;;;;6.60;5.43;;;14.80;99.90;;;;;;4196567;28;20213;-75
2023/08/29 06:15:43;;;;;;;9.37;6.10;;;14.80;99.90;;;;;;4186983;28;20842;-75
2023/08/29 06:17:45;;;;;;;9.10;6.10;;;14.80;99.90;;;;;;4189051;28;20259;-76
2023/08/29 06:19:49;;;;;;;7.73;5.47;;;14.80;99.90;;;;;;4187174;28;20903;-75
2023/08/29 06:21:51;;;;;;;7.43;5.80;;;14.80;99.90;;;;;;4190025;28;20223;-76
2023/08/29 06:23:52;;;;;;;8.07;6.00;;;14.80;99.90;;;;;;4191389;28;20260;-75
2023/08/29 06:25:54;;;;;;;6.63;5.67;;;14.80;99.90;;;;;;4196803;28;20196;-76
2023/08/29 06:27:56;;;;;;;6.50;5.20;;;14.80;99.90;;;;;;4191498;28;20283;-75
2023/08/29 06:29:58;;;;;;;7.30;5.33;;;14.80;99.90;;;;;;4193255;28;20221;-74
2023/08/29 06:31:59;;;;;;;6.77;5.33;;;14.80;99.90;;;;;;4191544;28;21074;-75
2023/08/29 06:34:01;;;;;;;7.57;5.30;;;14.80;99.90;;;;;;4190932;28;20203;-75
2023/08/29 06:36:05;;;;;;;7.60;5.43;;;14.80;99.90;;;;;;4189720;28;20667;-76
2023/08/29 06:38:07;;;;;;;7.77;5.93;;;14.80;99.90;;;;;;4191753;28;20228;-75
2023/08/29 06:40:10;;;;;;;8.03;5.30;;;14.80;99.90;;;;;;4189698;28;20226;-77
2023/08/29 06:42:12;;;;;;;6.13;4.97;;;14.90;99.90;;;;;;4190024;28;20628;-75
2023/08/29 06:44:14;;;;;;;5.70;4.90;;;14.90;99.90;;;;;;4192500;28;20272;-75
2023/08/29 06:46:17;;;;;;;7.03;5.20;;;14.90;99.90;;;;;;4190405;28;20222;-75
2023/08/29 06:48:18;;;;;;;5.97;4.90;;;14.90;99.90;;;;;;4199372;28;20266;-75
2023/08/29 06:50:20;;;;;;;6.60;5.20;;;14.90;99.90;;;;;;4192257;28;20259;-75
2023/08/29 06:52:23;;;;;;;6.17;4.73;;;14.90;99.90;;;;;;4192090;28;20259;-76
2023/08/29 06:54:25;;;;;;;8.13;5.17;;;15.00;99.90;;;;;;4188014;28;20272;-76
2023/08/29 06:56:27;;;;;;;7.67;5.37;;;15.00;99.90;;;;;;4198916;28;20270;-76
2023/08/29 06:58:29;;;;;;;9.20;5.37;;;15.00;99.90;;;;;;4188338;28;20202;-75
2023/08/29 07:00:31;;;;;;;8.63;5.03;;;15.00;99.90;;;;;;4191072;28;20228;-75
2023/08/29 07:02:33;;;;;;;6.97;5.77;;;15.10;99.90;;;;;;4187371;28;20283;-77
2023/08/29 07:04:35;;;;;;;10.40;6.00;;;15.10;99.90;;;;;;4192813;28;20232;-75
2023/08/29 07:06:37;;;;;;;7.53;5.60;;;15.10;99.90;;;;;;4192508;28;20206;-74
2023/08/29 07:08:40;;;;;;;8.47;5.30;;;15.10;99.90;;;;;;4190470;28;20588;-74
2023/08/29 07:10:42;;;;;;;7.27;5.70;;;15.10;99.90;;;;;;4188169;28;20234;-75
2023/08/29 07:12:44;;;;;;;7.53;5.30;;;15.10;99.90;;;;;;4193158;28;20217;-77
2023/08/29 07:14:46;;;;;;;7.10;5.30;;;15.20;99.90;;;;;;4198449;28;20689;-76
2023/08/29 07:16:48;;;;;;;6.10;5.03;;;15.20;99.90;;;;;;4193853;28;20206;-75
2023/08/29 07:18:50;;;;;;;9.67;6.33;;;15.20;99.90;;;;;;4185080;28;20741;-75
2023/08/29 07:20:52;;;;;;;7.17;5.30;;;15.20;99.90;;;;;;4190674;28;20225;-76
2023/08/29 07:22:54;;;;;;;6.87;5.57;;;15.20;99.90;;;;;;4197973;28;20717;-74
2023/08/29 07:24:57;;;;;;;9.70;5.53;;;15.20;99.90;;;;;;4189286;28;20633;-74
2023/08/29 07:26:59;;;;;;;7.87;5.43;;;15.20;99.90;;;;;;4189062;28;20206;-75
2023/08/29 07:29:01;;;;;;;7.60;5.40;;;15.20;99.90;;;;;;4187355;28;20558;-75
2023/08/29 07:31:03;;;;;;;6.77;5.03;;;15.20;99.90;;;;;;4189137;28;20237;-75
2023/08/29 07:33:06;;;;;;;7.83;4.47;;;15.10;99.90;;;;;;4192400;28;20263;-76
2023/08/29 07:35:08;;;;;;;6.30;5.00;;;15.20;99.90;;;;;;4196344;28;20690;-75
2023/08/29 07:37:10;;;;;;;5.97;4.80;;;15.30;99.90;;;;;;4196548;28;20205;-76
2023/08/29 07:39:14;;;;;;;6.40;4.97;;;15.20;99.90;;;;;;4199147;28;20260;-75
2023/08/29 07:41:18;;;;;;;6.83;4.97;;;15.20;99.90;;;;;;4187788;28;20283;-74
2023/08/29 07:43:20;;;;;;;7.57;5.43;;;15.20;99.90;;;;;;4192487;28;20660;-75
2023/08/29 07:45:22;;;;;;;9.20;5.00;;;15.30;99.90;;;;;;4200711;28;20219;-75
2023/08/29 07:47:23;;;;;;;7.33;4.87;;;15.30;99.90;;;;;;4190981;28;20263;-75
2023/08/29 07:49:25;;;;;;;5.77;4.90;;;15.30;99.90;;;;;;4197590;28;20217;-77
2023/08/29 07:51:27;;;;;;;7.47;5.17;;;15.30;99.90;;;;;;4186219;28;20202;-77
2023/08/29 07:53:29;;;;;;;7.73;5.20;;;15.30;99.90;;;;;;4185915;28;20210;-78
2023/08/29 07:55:33;;;;;;;5.87;4.77;;;15.40;99.90;;;;;;4181684;28;20202;-75
2023/08/29 07:57:37;;;;;;;8.17;5.60;;;15.40;99.90;;;;;;4186269;28;20206;-75
2023/08/29 07:59:40;;;;;;;8.07;5.73;;;15.40;99.90;;;;;;4196346;28;20202;-75
2023/08/29 08:01:43;;;;;;;5.70;4.87;;;15.50;99.90;;;;;;4189314;28;20886;-75
2023/08/29 08:03:45;;;;;;;7.83;5.60;;;15.50;99.90;;;;;;4193092;28;20214;-75
2023/08/29 08:05:47;;;;;;;9.60;6.27;;;15.50;99.90;;;;;;4200226;28;20205;-75
2023/08/29 08:07:52;;;;;;;8.43;5.37;;;15.50;99.90;;;;;;4187012;28;20217;-76
2023/08/29 08:09:53;;;;;;;8.20;5.57;;;15.50;99.90;;;;;;4193525;28;20223;-76
2023/08/29 08:11:55;;;;;;;7.73;4.77;;;15.50;99.90;;;;;;4189139;28;20193;-74
2023/08/29 08:13:58;;;;;;;8.13;6.27;;;15.50;99.90;;;;;;4191238;28;20210;-75
2023/08/29 08:16:00;;;;;;;5.97;5.37;;;15.40;99.90;;;;;;4189286;28;20663;-74
2023/08/29 08:18:02;;;;;;;6.37;4.47;;;15.50;99.90;;;;;;4192478;28;20211;-74
2023/08/29 08:20:07;;;;;;;7.67;4.67;;;15.50;99.90;;;;;;4183947;28;20237;-75
2023/08/29 08:22:13;;;;;;;6.27;4.80;;;15.50;99.90;;;;;;4188932;28;20218;-74
2023/08/29 08:24:16;;;;;;;6.00;4.67;;;15.50;99.90;;;;;;4190631;28;20686;-74
2023/08/29 08:26:18;;;;;;;6.43;4.67;;;15.50;99.90;;;;;;4191215;28;20565;-74
2023/08/29 08:28:20;;;;;;;9.23;5.00;;;15.60;99.90;;;;;;4190619;28;20209;-74
2023/08/29 08:30:23;;;;;;;7.73;5.37;;;15.60;99.90;;;;;;4190280;28;20689;-75
2023/08/29 08:32:25;;;;;;;9.57;5.00;;;15.60;99.90;;;;;;4190780;28;20256;-74
2023/08/29 08:34:27;;;;;;;7.33;4.93;;;15.60;99.90;;;;;;4191335;28;20290;-74
2023/08/29 08:36:30;;;;;;;7.10;5.50;;;15.60;99.90;;;;;;4195068;28;20609;-75
2023/08/29 08:38:32;;;;;;;5.70;4.60;;;15.70;99.90;;;;;;4188584;28;20226;-75
2023/08/29 08:40:36;;;;;;;6.63;5.40;;;15.60;99.90;;;;;;4197436;28;20213;-74
2023/08/29 08:42:39;;;;;;;9.30;5.23;;;15.60;99.90;;;;;;4190521;28;20297;-74
2023/08/29 08:44:42;;;;;;;7.50;5.27;;;15.60;99.90;;;;;;4190738;28;20278;-75
2023/08/29 08:46:47;;;;;;;9.87;5.53;;;15.50;99.90;;;;;;4192129;28;20300;-74
2023/08/29 08:48:49;;;;;;;9.53;5.93;;;15.50;99.90;;;;;;4191618;28;20261;-73
2023/08/29 08:50:51;;;;;;;7.17;5.40;;;15.50;99.90;;;;;;4181109;28;20245;-73
2023/08/29 08:52:56;;;;;;;6.53;4.70;;;15.40;99.90;;;;;;4193545;28;20591;-75
2023/08/29 08:54:58;;;;;;;8.83;6.30;;;15.50;99.90;;;;;;4193341;28;20210;-74
2023/08/29 08:57:00;;;;;;;8.07;5.37;;;15.50;99.90;;;;;;4186530;28;20261;-75
2023/08/29 08:59:02;;;;;;;6.53;5.80;;;15.60;99.90;;;;;;4181652;28;20199;-74
2023/08/29 09:01:03;;;;;;;7.03;5.90;;;15.70;99.90;;;;;;4190637;28;20229;-73
2023/08/29 09:03:07;;;;;;;6.77;5.40;;;15.80;99.90;;;;;;4194155;28;20576;-74
2023/08/29 09:05:09;;;;;;;5.73;5.13;;;15.80;99.90;;;;;;4190131;28;20228;-75
2023/08/29 09:07:11;;;;;;;6.30;5.60;;;15.90;99.90;;;;;;4187614;28;20625;-73
2023/08/29 09:09:16;;;;;;;5.90;5.07;;;16.10;99.90;;;;;;4197715;28;20261;-74
2023/08/29 09:11:18;;;;;;;9.37;7.37;;;16.10;99.90;;;;;;4186404;28;20230;-74
2023/08/29 09:13:22;;;;;;;8.07;6.30;;;16.20;99.90;;;;;;4195499;28;20236;-74
2023/08/29 09:15:27;;;;;;;10.20;6.73;;;16.20;99.90;;;;;;4190420;28;20211;-74
2023/08/29 09:17:28;;;;;;;7.10;6.23;;;16.30;99.90;;;;;;4192608;28;20294;-74
2023/08/29 09:19:34;;;;;;;9.53;7.43;;;16.40;99.90;;;;;;4198534;28;20201;-75
2023/08/29 09:21:36;;;;;;;12.47;8.40;;;16.50;99.90;;;;;;4194459;28;20668;-74
2023/08/29 09:23:39;;;;;;;13.40;7.60;;;16.50;99.90;;;;;;4196054;28;20285;-73
2023/08/29 09:25:41;;;;;;;13.23;7.93;;;16.60;99.90;;;;;;4191865;28;20226;-73
2023/08/29 09:27:44;;;;;;;7.80;6.37;;;16.70;99.90;;;;;;4202820;28;20235;-74
2023/08/29 09:29:46;;;;;;;7.77;6.33;;;16.70;99.90;;;;;;4195887;28;20312;-73
2023/08/29 09:31:49;;;;;;;7.87;6.17;;;16.70;99.90;;;;;;4195840;28;20213;-73
2023/08/29 09:33:51;;;;;;;6.57;5.87;;;16.70;99.90;;;;;;4192267;28;20289;-73
2023/08/29 09:35:54;;;;;;;7.40;5.13;;;16.70;99.90;;;;;;4194651;28;20274;-73
2023/08/29 09:37:56;;;;;;;7.27;5.27;;;16.70;99.90;;;;;;4192084;28;20263;-73
2023/08/29 09:39:59;;;;;;;8.50;6.27;;;16.70;99.90;;;;;;4196994;28;20219;-73
2023/08/29 09:42:02;;;;;;;6.17;4.67;;;16.80;99.90;;;;;;4193912;28;20289;-73
2023/08/29 09:44:12;;;;;;;6.77;5.60;;;16.80;99.90;;;;;;4186979;28;20221;-72
2023/08/29 09:46:14;;;;;;;7.60;5.10;;;16.80;99.90;;;;;;4192795;28;20355;-73
2023/08/29 09:48:16;;;;;;;7.37;6.10;;;16.80;99.90;;;;;;4190606;28;20212;-73
2023/08/29 09:50:19;;;;;;;5.57;4.87;;;16.90;99.90;;;;;;4191519;28;20230;-73
2023/08/29 09:52:23;;;;;;;7.00;5.50;;;16.90;99.90;;;;;;4196990;28;20250;-73
2023/08/29 09:54:25;;;;;;;7.83;5.13;;;16.90;99.90;;;;;;4191623;28;20263;-72
2023/08/29 09:56:30;;;;;;;5.67;4.87;;;17.00;99.90;;;;;;4197613;28;20208;-73
2023/08/29 09:58:33;;;;;;;8.90;5.20;;;17.10;99.90;;;;;;4193548;28;20243;-72
2023/08/29 10:00:37;;;;;;;7.20;5.00;;;17.10;99.90;;;;;;4192440;28;20253;-73
2023/08/29 10:02:40;;;;;;;6.13;5.23;;;17.10;99.90;;;;;;4186080;28;20833;-72
2023/08/29 10:04:45;;;;;;;8.73;6.00;;;17.10;99.90;;;;;;4189861;28;20235;-74
2023/08/29 10:06:49;;;;;;;7.43;5.87;;;17.20;99.90;;;;;;4192932;28;20211;-72
2023/08/29 10:09:00;;;;;;;7.47;5.70;;;17.20;99.90;;;;;;4191205;28;20204;-73
2023/08/29 10:11:03;;;;;;;6.80;5.70;;;17.30;99.90;;;;;;4193901;28;20229;-72
2023/08/29 10:13:06;;;;;;;6.50;5.30;;;17.30;99.90;;;;;;4192170;28;20611;-72
2023/08/29 10:15:09;;;;;;;7.23;5.27;;;17.40;99.90;;;;;;4193898;28;20771;-72
2023/08/29 10:17:12;;;;;;;6.53;5.53;;;17.40;99.90;;;;;;4189862;28;20210;-74
2023/08/29 10:19:16;;;;;;;6.20;5.60;;;17.50;99.90;;;;;;4195162;28;20215;-74
2023/08/29 10:21:21;;;;;;;6.97;5.07;;;17.60;99.90;;;;;;4193218;28;20232;-72
2023/08/29 10:23:23;;;;;;;7.60;5.80;;;17.60;99.90;;;;;;4193545;28;20232;-73
2023/08/29 10:25:29;;;;;;;6.53;5.03;;;17.60;99.90;;;;;;4194518;28;20283;-72
2023/08/29 10:27:31;;;;;;;7.77;5.70;;;17.60;99.90;;;;;;4193489;28;20206;-74
2023/08/29 10:29:33;;;;;;;7.73;5.17;;;17.70;99.90;;;;;;4189351;28;20209;-73
2023/08/29 10:31:36;;;;;;;8.27;5.40;;;17.80;99.90;;;;;;4196240;28;20259;-73
2023/08/29 10:33:37;;;;;;;6.73;5.60;;;17.90;99.90;;;;;;4196819;28;20206;-73
2023/08/29 10:35:39;;;;;;;5.70;5.07;;;18.00;99.90;;;;;;4197467;28;20205;-76
2023/08/29 10:37:41;;;;;;;6.73;5.40;;;18.00;99.90;;;;;;4190553;28;20745;-73